Time;durP1;ratioP1;P1;durP2;ratioP2;P2;SDS_P1;SDS_P2;PMS_P1;PMS_P2;Temp;Humidity;BMP_temperature;BMP_pressure;BME280_temperature;BME280_humidity;BME280_pressure;Samples;Min_cycle;Max_cycle;Signal;HPM_P1;HPM_P2
2022/06/11 00:01:01;;;;;;;5.87;5.35;;;;;;;;;;4426653;32;20330;-61
2022/06/11 00:03:26;;;;;;;7.93;6.28;;;;;;;;;;4433710;32;20232;-60
2022/06/11 00:05:52;;;;;;;6.97;5.37;;;;;;;;;;4434942;32;20263;-60
2022/06/11 00:08:19;;;;;;;12.23;5.70;;;;;;;;;;4434882;32;20212;-59
2022/06/11 00:10:44;;;;;;;9.23;6.22;;;;;;;;;;4434742;32;20209;-60
2022/06/11 00:13:10;;;;;;;7.22;4.95;;;;;;;;;;4434755;32;20255;-61
2022/06/11 00:15:36;;;;;;;6.72;5.75;;;;;;;;;;4433673;32;20288;-61
2022/06/11 00:18:03;;;;;;;9.25;5.70;;;;;;;;;;4433561;32;20719;-61
2022/06/11 00:20:30;;;;;;;6.75;5.97;;;;;;;;;;4434988;32;20212;-60
2022/06/11 00:22:56;;;;;;;7.12;5.30;;;;;;;;;;4434709;32;20686;-59
2022/06/11 00:25:22;;;;;;;6.70;5.95;;;;;;;;;;4434868;32;20197;-60
2022/06/11 00:27:47;;;;;;;6.75;5.30;;;;;;;;;;4434032;32;20581;-61
2022/06/11 00:30:14;;;;;;;9.20;5.22;;;;;;;;;;4434496;32;20271;-60
2022/06/11 00:32:39;;;;;;;8.23;5.62;;;;;;;;;;4434601;32;20379;-61
2022/06/11 00:35:06;;;;;;;6.07;5.47;;;;;;;;;;4433004;32;20629;-60
2022/06/11 00:37:32;;;;;;;7.30;5.10;;;;;;;;;;4434429;32;20259;-60
2022/06/11 00:39:58;;;;;;;7.43;6.05;;;;;;;;;;4434731;32;20197;-60
2022/06/11 00:42:27;;;;;;;6.53;5.28;;;;;;;;;;4433999;32;20333;-60
2022/06/11 00:45:30;;;;;;;6.90;5.28;;;;;;;;;;4434077;32;20205;-61
2022/06/11 00:48:05;;;;;;;10.52;5.90;;;;;;;;;;4432671;32;20304;-60
2022/06/11 00:50:40;;;;;;;7.78;5.60;;;;;;;;;;4433763;32;20283;-61
2022/06/11 00:53:34;;;;;;;6.85;5.95;;;;;;;;;;4432586;32;20228;-60
2022/06/11 00:56:00;;;;;;;6.45;5.72;;;;;;;;;;4431666;32;20814;-60
2022/06/11 00:58:33;;;;;;;7.22;5.40;;;;;;;;;;4433893;32;20235;-60
2022/06/11 01:01:00;;;;;;;7.37;6.28;;;;;;;;;;4433747;32;20208;-60
2022/06/11 01:03:33;;;;;;;7.00;5.97;;;;;;;;;;4432811;32;20231;-60
2022/06/11 01:06:26;;;;;;;6.80;6.10;;;;;;;;;;4433955;32;20205;-60
2022/06/11 01:09:23;;;;;;;8.00;5.90;;;;;;;;;;4433944;32;20259;-60
2022/06/11 01:12:05;;;;;;;6.95;5.43;;;;;;;;;;4433181;32;20284;-62
2022/06/11 01:14:43;;;;;;;8.23;6.30;;;;;;;;;;4433728;32;20678;-61
2022/06/11 01:17:17;;;;;;;7.50;6.18;;;;;;;;;;4433669;32;20255;-61
2022/06/11 01:19:55;;;;;;;6.75;5.45;;;;;;;;;;4433434;32;20220;-61
2022/06/11 01:22:52;;;;;;;6.32;5.20;;;;;;;;;;4433431;32;20427;-60
2022/06/11 01:25:42;;;;;;;6.78;5.68;;;;;;;;;;4430013;32;20253;-60
2022/06/11 01:28:53;;;;;;;7.47;6.20;;;;;;;;;;4433574;32;20680;-60
2022/06/11 01:31:30;;;;;;;9.93;5.32;;;;;;;;;;4385701;32;20280;-60
2022/06/11 01:34:26;;;;;;;6.95;6.18;;;;;;;;;;4385364;32;20379;-60
2022/06/11 01:36:57;;;;;;;8.88;6.60;;;;;;;;;;4423651;32;20268;-60
2022/06/11 01:39:37;;;;;;;9.45;6.65;;;;;;;;;;4433791;32;20209;-60
2022/06/11 01:42:14;;;;;;;8.63;5.87;;;;;;;;;;4433300;32;20266;-61
2022/06/11 01:44:43;;;;;;;6.70;5.82;;;;;;;;;;4433684;32;20297;-61
2022/06/11 01:47:12;;;;;;;7.43;6.55;;;;;;;;;;4433537;32;20300;-61
2022/06/11 01:49:45;;;;;;;6.78;6.07;;;;;;;;;;4433256;32;20193;-60
2022/06/11 01:52:29;;;;;;;8.05;6.05;;;;;;;;;;4432303;32;20651;-60
2022/06/11 01:55:33;;;;;;;7.82;6.22;;;;;;;;;;4431841;32;20220;-60
2022/06/11 01:58:15;;;;;;;8.02;5.90;;;;;;;;;;4415590;32;20259;-60
2022/06/11 02:00:57;;;;;;;7.90;4.97;;;;;;;;;;4420885;32;20550;-61
2022/06/11 02:03:46;;;;;;;8.52;6.80;;;;;;;;;;4433441;32;20556;-61
2022/06/11 02:06:30;;;;;;;10.35;6.82;;;;;;;;;;4433556;32;20270;-62
2022/06/11 02:09:10;;;;;;;9.15;6.30;;;;;;;;;;4426041;32;20544;-62
2022/06/11 02:11:46;;;;;;;6.30;5.70;;;;;;;;;;4433022;32;20243;-62
2022/06/11 02:14:39;;;;;;;5.62;4.95;;;;;;;;;;4433327;32;20310;-62
2022/06/11 02:17:17;;;;;;;6.85;5.75;;;;;;;;;;4432105;32;20291;-62
2022/06/11 02:19:52;;;;;;;6.45;5.85;;;;;;;;;;4432896;32;20244;-62
2022/06/11 02:22:26;;;;;;;8.80;6.65;;;;;;;;;;4432839;32;20224;-62
2022/06/11 02:24:58;;;;;;;10.27;6.50;;;;;;;;;;4433041;32;20727;-62
2022/06/11 02:27:28;;;;;;;8.45;5.50;;;;;;;;;;4436212;32;20260;-62
2022/06/11 02:29:55;;;;;;;5.97;5.32;;;;;;;;;;4436089;32;20236;-63
2022/06/11 02:32:23;;;;;;;7.30;6.53;;;;;;;;;;4435819;32;20228;-62
2022/06/11 02:34:57;;;;;;;7.50;5.78;;;;;;;;;;4435853;32;20680;-62
2022/06/11 02:37:30;;;;;;;10.43;6.70;;;;;;;;;;4435991;32;20228;-62
2022/06/11 02:40:02;;;;;;;8.82;6.72;;;;;;;;;;4435165;32;20339;-62
2022/06/11 02:42:30;;;;;;;6.55;5.95;;;;;;;;;;4435529;32;20277;-62
2022/06/11 02:44:55;;;;;;;7.00;5.68;;;;;;;;;;4435660;32;20269;-62
2022/06/11 02:47:22;;;;;;;8.20;6.57;;;;;;;;;;4434409;32;20244;-62
2022/06/11 02:49:48;;;;;;;7.30;5.97;;;;;;;;;;4435646;32;20205;-62
2022/06/11 02:52:20;;;;;;;6.68;5.03;;;;;;;;;;4427345;32;20296;-62
2022/06/11 02:54:47;;;;;;;8.15;6.37;;;;;;;;;;4427010;32;20256;-62
2022/06/11 02:57:16;;;;;;;10.27;6.78;;;;;;;;;;4435261;32;20248;-62
2022/06/11 02:59:43;;;;;;;8.20;6.65;;;;;;;;;;4435078;32;20593;-62
2022/06/11 03:02:10;;;;;;;7.93;6.22;;;;;;;;;;4434218;32;20394;-62
2022/06/11 03:04:36;;;;;;;7.28;5.55;;;;;;;;;;4435641;32;20228;-62
2022/06/11 03:07:03;;;;;;;9.05;6.40;;;;;;;;;;4435547;32;20259;-60
2022/06/11 03:09:32;;;;;;;6.55;5.45;;;;;;;;;;4435424;32;20216;-61
2022/06/11 03:11:59;;;;;;;7.40;5.62;;;;;;;;;;4435310;32;20277;-61
2022/06/11 03:14:25;;;;;;;8.80;6.60;;;;;;;;;;4435236;32;20589;-61
2022/06/11 03:16:50;;;;;;;10.35;6.03;;;;;;;;;;4435234;32;20243;-61
2022/06/11 03:19:20;;;;;;;7.40;5.75;;;;;;;;;;4433883;32;20220;-60
2022/06/11 03:21:47;;;;;;;7.65;6.32;;;;;;;;;;4434827;32;20267;-61
2022/06/11 03:24:13;;;;;;;9.52;6.72;;;;;;;;;;4435410;32;20289;-61
2022/06/11 03:26:39;;;;;;;7.10;6.35;;;;;;;;;;4434541;32;20259;-61
2022/06/11 03:29:05;;;;;;;6.87;5.97;;;;;;;;;;4435420;32;20239;-61
2022/06/11 03:31:31;;;;;;;9.38;6.85;;;;;;;;;;4434937;32;20302;-61
2022/06/11 03:33:57;;;;;;;7.55;6.75;;;;;;;;;;4434935;32;20206;-61
2022/06/11 03:36:22;;;;;;;7.22;6.43;;;;;;;;;;4433233;32;20309;-60
2022/06/11 03:38:48;;;;;;;8.32;7.12;;;;;;;;;;4434691;32;20200;-61
2022/06/11 03:41:15;;;;;;;9.00;6.68;;;;;;;;;;4434457;32;20319;-61
2022/06/11 03:43:41;;;;;;;9.27;7.70;;;;;;;;;;4434401;32;20225;-61
2022/06/11 03:46:07;;;;;;;12.15;7.15;;;;;;;;;;4434938;32;20639;-60
2022/06/11 03:48:36;;;;;;;7.05;6.35;;;;;;;;;;4434583;32;20231;-61
2022/06/11 03:51:03;;;;;;;7.53;6.55;;;;;;;;;;4433133;32;20262;-61
2022/06/11 03:53:29;;;;;;;7.55;6.68;;;;;;;;;;4433395;32;20688;-61
2022/06/11 03:55:56;;;;;;;8.27;6.43;;;;;;;;;;4426219;32;20240;-61
2022/06/11 03:58:22;;;;;;;8.57;6.15;;;;;;;;;;4419228;32;20202;-61
2022/06/11 04:03:34;;;;;;;13.10;6.10;;;;;;;;;;4434388;32;20248;-61
2022/06/11 04:06:01;;;;;;;8.80;6.20;;;;;;;;;;4434441;32;20283;-61
2022/06/11 04:08:27;;;;;;;7.03;6.32;;;;;;;;;;4434228;32;20235;-61
2022/06/11 04:10:56;;;;;;;6.53;5.78;;;;;;;;;;4433936;32;20209;-61
2022/06/11 04:13:24;;;;;;;6.50;5.90;;;;;;;;;;4434137;32;20684;-61
2022/06/11 04:15:50;;;;;;;9.48;6.30;;;;;;;;;;4434199;32;20609;-61
2022/06/11 04:18:32;;;;;;;7.70;5.82;;;;;;;;;;4434031;32;20227;-61
2022/06/11 04:20:59;;;;;;;6.70;5.05;;;;;;;;;;4434110;32;20346;-61
2022/06/11 04:23:29;;;;;;;6.15;5.00;;;;;;;;;;4434223;32;20259;-63
2022/06/11 04:25:56;;;;;;;6.32;5.72;;;;;;;;;;4432146;32;20228;-61
2022/06/11 04:28:22;;;;;;;9.55;6.45;;;;;;;;;;4434282;32;20623;-61
2022/06/11 04:30:47;;;;;;;6.45;5.82;;;;;;;;;;4433832;32;20266;-61
2022/06/11 04:33:13;;;;;;;9.27;5.35;;;;;;;;;;4434161;32;20635;-61
2022/06/11 04:35:39;;;;;;;6.87;5.78;;;;;;;;;;4433928;32;20293;-61
2022/06/11 04:38:04;;;;;;;6.65;5.57;;;;;;;;;;4433693;32;20221;-61
2022/06/11 04:40:30;;;;;;;7.12;5.87;;;;;;;;;;4433521;32;20221;-60
2022/06/11 04:42:55;;;;;;;10.98;5.55;;;;;;;;;;4433935;32;20256;-61
2022/06/11 04:45:21;;;;;;;7.15;5.07;;;;;;;;;;4421631;32;20285;-61
2022/06/11 04:47:47;;;;;;;6.10;5.43;;;;;;;;;;4417789;32;20233;-61
2022/06/11 04:50:16;;;;;;;6.07;5.10;;;;;;;;;;4418640;32;20662;-61
2022/06/11 04:52:41;;;;;;;7.10;5.45;;;;;;;;;;4418397;32;20267;-60
2022/06/11 04:55:07;;;;;;;5.78;5.00;;;;;;;;;;4427334;32;20663;-60
2022/06/11 04:57:33;;;;;;;9.50;5.30;;;;;;;;;;4433494;32;20240;-61
2022/06/11 04:59:59;;;;;;;5.30;4.53;;;;;;;;;;4433526;32;20289;-60
2022/06/11 05:02:24;;;;;;;6.03;4.55;;;;;;;;;;4432656;32;20329;-61
2022/06/11 05:04:50;;;;;;;11.10;5.85;;;;;;;;;;4434010;32;20262;-60
2022/06/11 05:07:15;;;;;;;5.45;4.82;;;;;;;;;;4433486;32;20719;-60
2022/06/11 05:09:41;;;;;;;4.93;4.43;;;;;;;;;;4432124;32;20213;-62
2022/06/11 05:12:07;;;;;;;4.70;4.20;;;;;;;;;;4433205;32;20646;-61
2022/06/11 05:14:33;;;;;;;4.85;3.47;;;;;;;;;;4432134;32;20376;-62
2022/06/11 05:16:59;;;;;;;5.03;4.18;;;;;;;;;;4432338;32;20736;-62
2022/06/11 05:19:26;;;;;;;3.97;3.58;;;;;;;;;;4433056;32;20213;-62
2022/06/11 05:21:53;;;;;;;4.25;3.78;;;;;;;;;;4433033;32;20731;-62
2022/06/11 05:24:20;;;;;;;4.20;3.80;;;;;;;;;;4433444;32;20642;-63
2022/06/11 05:26:54;;;;;;;5.43;3.65;;;;;;;;;;4433274;32;20241;-62
2022/06/11 05:29:24;;;;;;;5.80;5.03;;;;;;;;;;4433465;32;20305;-62
2022/06/11 05:31:50;;;;;;;3.78;3.00;;;;;;;;;;4432081;32;20325;-62
2022/06/11 05:34:15;;;;;;;3.92;3.30;;;;;;;;;;4433302;32;20615;-62
2022/06/11 05:36:41;;;;;;;3.87;3.03;;;;;;;;;;4433360;32;20228;-62
2022/06/11 05:39:06;;;;;;;3.15;2.80;;;;;;;;;;4432911;32;20209;-61
2022/06/11 05:41:32;;;;;;;3.37;3.08;;;;;;;;;;4432285;32;20303;-63
2022/06/11 05:43:58;;;;;;;4.50;2.95;;;;;;;;;;4428758;32;20465;-63
2022/06/11 05:46:26;;;;;;;7.20;2.33;;;;;;;;;;4429684;32;20236;-63
2022/06/11 05:48:58;;;;;;;5.07;2.25;;;;;;;;;;4432402;32;20232;-63
2022/06/11 05:51:30;;;;;;;8.32;2.35;;;;;;;;;;4432708;32;20255;-63
2022/06/11 05:53:57;;;;;;;3.83;2.72;;;;;;;;;;4432981;32;20275;-62
2022/06/11 05:56:24;;;;;;;4.05;2.47;;;;;;;;;;4431621;32;20255;-63
2022/06/11 05:58:57;;;;;;;4.47;2.65;;;;;;;;;;4432924;32;20469;-63
2022/06/11 06:01:27;;;;;;;4.20;2.08;;;;;;;;;;4435927;32;20301;-62
2022/06/11 06:03:52;;;;;;;3.17;2.53;;;;;;;;;;4433946;32;20250;-63
2022/06/11 06:06:18;;;;;;;2.97;2.60;;;;;;;;;;4436191;32;20232;-62
2022/06/11 06:08:44;;;;;;;3.47;2.30;;;;;;;;;;4435167;32;20225;-63
2022/06/11 06:11:11;;;;;;;2.20;2.00;;;;;;;;;;4434413;32;20379;-63
2022/06/11 06:13:48;;;;;;;2.58;2.33;;;;;;;;;;4435977;32;20201;-62
2022/06/11 06:16:20;;;;;;;3.08;2.10;;;;;;;;;;4435400;32;20327;-63
2022/06/11 06:18:46;;;;;;;2.65;2.20;;;;;;;;;;4434390;32;20308;-62
2022/06/11 06:21:13;;;;;;;3.47;1.95;;;;;;;;;;4434973;32;20308;-62
2022/06/11 06:23:39;;;;;;;3.20;2.45;;;;;;;;;;4435363;32;20229;-63
2022/06/11 06:26:05;;;;;;;2.83;2.50;;;;;;;;;;4435322;32;20522;-62
2022/06/11 06:28:32;;;;;;;6.57;2.60;;;;;;;;;;4435440;32;20198;-62
2022/06/11 06:30:59;;;;;;;3.08;2.40;;;;;;;;;;4434033;32;20252;-62
2022/06/11 06:33:26;;;;;;;5.25;2.45;;;;;;;;;;4435248;32;20405;-62
2022/06/11 06:35:52;;;;;;;2.37;2.15;;;;;;;;;;4435353;32;20608;-62
2022/06/11 06:38:17;;;;;;;11.50;1.75;;;;;;;;;;4435412;32;20273;-62
2022/06/11 06:40:43;;;;;;;1.98;1.60;;;;;;;;;;4434802;32;20204;-62
2022/06/11 06:43:09;;;;;;;2.40;1.65;;;;;;;;;;4435318;32;20288;-62
2022/06/11 06:45:35;;;;;;;4.15;2.35;;;;;;;;;;4434003;32;20241;-62
2022/06/11 06:48:02;;;;;;;2.15;1.85;;;;;;;;;;4434842;32;20247;-61
2022/06/11 06:50:28;;;;;;;4.82;2.75;;;;;;;;;;4435242;32;20277;-62
2022/06/11 06:52:54;;;;;;;3.40;2.65;;;;;;;;;;4435605;32;20271;-62
2022/06/11 06:55:19;;;;;;;3.42;2.60;;;;;;;;;;4435005;32;20303;-62
2022/06/11 06:57:45;;;;;;;3.90;2.40;;;;;;;;;;4434221;32;20255;-62
2022/06/11 07:00:11;;;;;;;3.55;2.35;;;;;;;;;;4435422;32;20680;-60
2022/06/11 07:02:37;;;;;;;3.17;2.12;;;;;;;;;;4435577;32;20224;-62
2022/06/11 07:05:03;;;;;;;2.65;2.30;;;;;;;;;;4435282;32;20209;-61
2022/06/11 07:07:29;;;;;;;5.12;2.03;;;;;;;;;;4435521;32;20233;-62
2022/06/11 07:09:56;;;;;;;5.28;2.92;;;;;;;;;;4434331;32;20587;-61
2022/06/11 07:12:22;;;;;;;2.87;2.60;;;;;;;;;;4435345;32;20219;-61
2022/06/11 07:14:48;;;;;;;2.55;1.90;;;;;;;;;;4435467;32;20533;-61
2022/06/11 07:17:15;;;;;;;2.83;2.03;;;;;;;;;;4434929;32;20229;-61
2022/06/11 07:19:49;;;;;;;4.20;2.00;;;;;;;;;;4434966;32;20247;-61
2022/06/11 07:22:19;;;;;;;2.90;2.03;;;;;;;;;;4434148;32;20309;-61
2022/06/11 07:24:45;;;;;;;4.35;2.47;;;;;;;;;;4434965;32;20189;-61
2022/06/11 07:27:16;;;;;;;5.03;3.35;;;;;;;;;;4435188;32;20251;-61
2022/06/11 07:29:45;;;;;;;2.30;1.90;;;;;;;;;;4435304;32;20220;-61
2022/06/11 07:32:16;;;;;;;6.45;3.83;;;;;;;;;;4435058;32;20228;-60
2022/06/11 07:34:42;;;;;;;5.10;2.28;;;;;;;;;;4435176;32;20201;-60
2022/06/11 07:37:09;;;;;;;2.87;2.05;;;;;;;;;;4434782;32;20628;-62
2022/06/11 07:39:34;;;;;;;4.50;2.20;;;;;;;;;;4433565;32;20241;-61
2022/06/11 07:42:00;;;;;;;1.70;1.58;;;;;;;;;;4434856;32;20348;-61
2022/06/11 07:44:26;;;;;;;2.80;2.10;;;;;;;;;;4434850;32;20201;-62
2022/06/11 07:46:51;;;;;;;2.50;2.15;;;;;;;;;;4434958;32;20671;-62
2022/06/11 07:49:17;;;;;;;2.55;1.75;;;;;;;;;;4435040;32;20268;-62
2022/06/11 07:51:43;;;;;;;4.15;2.12;;;;;;;;;;4434874;32;20280;-60
2022/06/11 07:54:09;;;;;;;6.25;2.60;;;;;;;;;;4434417;32;20196;-60
2022/06/11 07:56:37;;;;;;;6.78;2.35;;;;;;;;;;4424151;32;20274;-59
2022/06/11 07:59:03;;;;;;;4.25;2.55;;;;;;;;;;4419433;32;20350;-61
2022/06/11 08:01:29;;;;;;;3.70;2.15;;;;;;;;;;4419061;32;20319;-62
2022/06/11 08:03:54;;;;;;;5.35;2.12;;;;;;;;;;4419159;32;20528;-61
2022/06/11 08:06:20;;;;;;;6.12;2.75;;;;;;;;;;4419374;32;20255;-61
2022/06/11 08:08:46;;;;;;;2.17;1.73;;;;;;;;;;4426081;32;20209;-61
2022/06/11 08:11:12;;;;;;;4.50;1.62;;;;;;;;;;4434469;32;20255;-61
2022/06/11 08:13:37;;;;;;;4.18;2.00;;;;;;;;;;4434561;32;20213;-60
2022/06/11 08:16:03;;;;;;;3.85;2.40;;;;;;;;;;4434405;32;20231;-61
2022/06/11 08:18:31;;;;;;;6.35;3.45;;;;;;;;;;4434461;32;20256;-59
2022/06/11 08:20:56;;;;;;;6.20;2.40;;;;;;;;;;4433800;32;20248;-60
2022/06/11 08:23:23;;;;;;;2.17;1.75;;;;;;;;;;4433258;32;20201;-60
2022/06/11 08:25:50;;;;;;;4.10;2.30;;;;;;;;;;4434185;32;20231;-61
2022/06/11 08:28:17;;;;;;;10.30;3.40;;;;;;;;;;4434374;32;20215;-61
2022/06/11 08:30:43;;;;;;;4.62;2.62;;;;;;;;;;4434177;32;20204;-60
2022/06/11 08:33:09;;;;;;;5.90;1.83;;;;;;;;;;4434035;32;20629;-59
2022/06/11 08:35:35;;;;;;;4.07;1.37;;;;;;;;;;4432962;32;20240;-61
2022/06/11 08:38:03;;;;;;;1.33;1.23;;;;;;;;;;4432882;32;20689;-61
2022/06/11 08:40:34;;;;;;;1.25;1.00;;;;;;;;;;4432352;32;20382;-61
2022/06/11 08:43:01;;;;;;;3.40;1.30;;;;;;;;;;4433135;32;20656;-61
2022/06/11 08:45:44;;;;;;;3.60;1.17;;;;;;;;;;4433253;32;20235;-61
2022/06/11 08:48:27;;;;;;;1.50;1.30;;;;;;;;;;4433489;32;20312;-61
2022/06/11 08:51:16;;;;;;;3.95;2.12;;;;;;;;;;4431867;32;20240;-62
2022/06/11 08:53:41;;;;;;;2.05;1.17;;;;;;;;;;4418113;32;20228;-61
2022/06/11 08:56:17;;;;;;;1.08;0.95;;;;;;;;;;4426267;32;20343;-61
2022/06/11 08:58:58;;;;;;;2.45;1.52;;;;;;;;;;4433640;32;20192;-62
2022/06/11 09:02:02;;;;;;;1.33;1.00;;;;;;;;;;4433268;32;20287;-62
2022/06/11 09:04:40;;;;;;;2.90;1.30;;;;;;;;;;4433381;32;20223;-62
2022/06/11 09:07:20;;;;;;;2.22;1.65;;;;;;;;;;4433676;32;20232;-62
2022/06/11 09:10:02;;;;;;;1.77;1.40;;;;;;;;;;4431731;32;20596;-62
2022/06/11 09:12:56;;;;;;;7.53;1.10;;;;;;;;;;4433709;32;20521;-62
2022/06/11 09:15:38;;;;;;;1.90;1.48;;;;;;;;;;4433578;32;20205;-61
2022/06/11 09:18:22;;;;;;;1.87;1.25;;;;;;;;;;4433777;32;20213;-62
2022/06/11 09:21:00;;;;;;;1.92;1.52;;;;;;;;;;4433247;32;20201;-63
2022/06/11 09:23:51;;;;;;;1.83;1.20;;;;;;;;;;4432882;32;20213;-63
2022/06/11 09:26:30;;;;;;;1.87;1.55;;;;;;;;;;4403803;32;20250;-62
2022/06/11 09:28:56;;;;;;;2.10;1.30;;;;;;;;;;4433192;32;20272;-61
2022/06/11 09:31:44;;;;;;;1.20;1.10;;;;;;;;;;4433116;32;20583;-62
2022/06/11 09:34:15;;;;;;;4.53;1.62;;;;;;;;;;4431340;32;20275;-62
2022/06/11 09:36:49;;;;;;;4.00;1.12;;;;;;;;;;4432641;32;20224;-62
2022/06/11 09:39:52;;;;;;;1.90;1.58;;;;;;;;;;4432835;32;20677;-62
2022/06/11 09:42:31;;;;;;;2.62;1.50;;;;;;;;;;4432913;32;20320;-62
2022/06/11 09:45:10;;;;;;;1.67;1.27;;;;;;;;;;4431482;32;20224;-62
2022/06/11 09:48:04;;;;;;;2.72;1.30;;;;;;;;;;4433079;32;20220;-62
2022/06/11 09:50:40;;;;;;;3.85;2.28;;;;;;;;;;4432832;32;20810;-61
2022/06/11 09:53:11;;;;;;;4.10;1.62;;;;;;;;;;4431484;32;20278;-63
2022/06/11 09:55:52;;;;;;;2.55;1.40;;;;;;;;;;4431512;32;20356;-63
2022/06/11 09:58:56;;;;;;;2.58;1.85;;;;;;;;;;4431513;32;20213;-63
2022/06/11 10:01:29;;;;;;;3.60;2.22;;;;;;;;;;4432638;32;20251;-62
2022/06/11 10:04:01;;;;;;;1.95;1.67;;;;;;;;;;4431688;32;20532;-63
2022/06/11 10:06:35;;;;;;;2.25;1.50;;;;;;;;;;4432926;32;20246;-62
2022/06/11 10:09:04;;;;;;;1.87;1.30;;;;;;;;;;4432640;32;20201;-62
2022/06/11 10:11:55;;;;;;;1.60;1.50;;;;;;;;;;4431638;32;20300;-63
2022/06/11 10:14:30;;;;;;;1.73;1.62;;;;;;;;;;4432656;32;20240;-61
2022/06/11 10:17:37;;;;;;;3.60;1.40;;;;;;;;;;4433043;32;20200;-62
2022/06/11 10:20:40;;;;;;;1.70;1.58;;;;;;;;;;4432961;32;20192;-63
2022/06/11 10:23:21;;;;;;;2.50;1.58;;;;;;;;;;4430884;32;20618;-63
2022/06/11 10:25:59;;;;;;;3.72;1.92;;;;;;;;;;4431486;32;20535;-62
2022/06/11 10:28:38;;;;;;;3.72;2.35;;;;;;;;;;4432640;32;20188;-63
2022/06/11 10:31:17;;;;;;;5.15;2.42;;;;;;;;;;4417160;32;20670;-63
2022/06/11 10:33:57;;;;;;;3.10;2.45;;;;;;;;;;4423877;32;20216;-63
2022/06/11 10:36:30;;;;;;;3.55;2.35;;;;;;;;;;4431177;32;20213;-63
2022/06/11 10:39:01;;;;;;;5.72;2.78;;;;;;;;;;4430906;32;20238;-63
2022/06/11 10:41:35;;;;;;;1.77;1.62;;;;;;;;;;4432813;32;20665;-62
2022/06/11 10:44:29;;;;;;;5.40;2.95;;;;;;;;;;4432505;32;20375;-62
2022/06/11 10:46:56;;;;;;;5.72;2.40;;;;;;;;;;4435092;32;20319;-63
2022/06/11 10:49:25;;;;;;;4.18;2.92;;;;;;;;;;4434118;32;20220;-62
2022/06/11 10:52:01;;;;;;;3.25;2.58;;;;;;;;;;4434088;32;20329;-63
2022/06/11 10:54:27;;;;;;;4.03;2.80;;;;;;;;;;4435512;32;20233;-62
2022/06/11 10:56:59;;;;;;;5.07;2.90;;;;;;;;;;4433933;32;20213;-63
2022/06/11 10:59:38;;;;;;;4.47;2.62;;;;;;;;;;4434208;32;20607;-61
2022/06/11 11:02:28;;;;;;;3.47;2.58;;;;;;;;;;4435265;32;20239;-62
2022/06/11 11:05:07;;;;;;;6.25;2.97;;;;;;;;;;4434997;32;20212;-63
2022/06/11 11:07:54;;;;;;;6.65;3.17;;;;;;;;;;4434775;32;20628;-63
2022/06/11 11:10:34;;;;;;;3.15;2.50;;;;;;;;;;4419913;32;20636;-63
2022/06/11 11:13:02;;;;;;;9.30;3.08;;;;;;;;;;4420066;32;20690;-62
2022/06/11 11:15:37;;;;;;;5.10;2.75;;;;;;;;;;4418477;32;20335;-63
2022/06/11 11:18:25;;;;;;;3.40;2.95;;;;;;;;;;4418878;32;20225;-61
2022/06/11 11:20:55;;;;;;;2.87;2.12;;;;;;;;;;4419232;32;20624;-62
2022/06/11 11:23:28;;;;;;;3.80;2.03;;;;;;;;;;4419119;32;20220;-62
2022/06/11 11:26:25;;;;;;;4.20;2.50;;;;;;;;;;4425833;32;20204;-62
2022/06/11 11:28:59;;;;;;;2.87;2.37;;;;;;;;;;4392679;32;20229;-63
2022/06/11 11:31:39;;;;;;;5.80;2.78;;;;;;;;;;4419386;32;20209;-62
2022/06/11 11:34:15;;;;;;;3.22;2.30;;;;;;;;;;4419515;32;20220;-63
2022/06/11 11:36:41;;;;;;;2.53;1.98;;;;;;;;;;4419188;32;20253;-62
2022/06/11 11:39:13;;;;;;;3.10;2.30;;;;;;;;;;4419090;32;20266;-62
2022/06/11 11:42:06;;;;;;;3.15;2.17;;;;;;;;;;4418192;32;20225;-62
2022/06/11 11:44:37;;;;;;;6.00;2.58;;;;;;;;;;4425280;32;20568;-62
2022/06/11 11:47:11;;;;;;;5.78;2.78;;;;;;;;;;4434458;32;20217;-62
2022/06/11 11:49:38;;;;;;;5.47;2.87;;;;;;;;;;4434784;32;20188;-63
2022/06/11 11:52:18;;;;;;;2.67;2.15;;;;;;;;;;4432953;32;20248;-61
2022/06/11 11:55:16;;;;;;;4.50;2.67;;;;;;;;;;4434775;32;20616;-62
2022/06/11 11:57:52;;;;;;;3.90;2.42;;;;;;;;;;4417998;32;20233;-62
2022/06/11 12:00:26;;;;;;;3.22;2.60;;;;;;;;;;4417692;32;20221;-62
2022/06/11 12:03:01;;;;;;;4.75;2.17;;;;;;;;;;4419243;32;20639;-62
2022/06/11 12:05:31;;;;;;;1.90;1.70;;;;;;;;;;4417533;32;20669;-61
2022/06/11 12:07:58;;;;;;;2.53;1.83;;;;;;;;;;4419374;32;20255;-61
2022/06/11 12:10:31;;;;;;;10.60;2.40;;;;;;;;;;4433040;32;20288;-62
2022/06/11 12:12:58;;;;;;;5.53;2.20;;;;;;;;;;4433317;32;20235;-62
2022/06/11 12:15:27;;;;;;;5.55;2.53;;;;;;;;;;4432976;32;20336;-61
2022/06/11 12:18:17;;;;;;;1.55;1.35;;;;;;;;;;4434443;32;20494;-62
2022/06/11 12:20:44;;;;;;;2.90;2.00;;;;;;;;;;4432952;32;20584;-61
2022/06/11 12:23:30;;;;;;;2.72;2.25;;;;;;;;;;4433610;32;20334;-61
2022/06/11 12:26:28;;;;;;;2.28;1.58;;;;;;;;;;4433917;32;20637;-61
2022/06/11 12:29:02;;;;;;;1.75;1.65;;;;;;;;;;4434098;32;20185;-61
2022/06/11 12:31:29;;;;;;;5.35;1.92;;;;;;;;;;4433960;32;20338;-61
2022/06/11 12:33:55;;;;;;;2.78;1.50;;;;;;;;;;4434299;32;20223;-61
2022/06/11 12:36:39;;;;;;;2.12;1.60;;;;;;;;;;4433673;32;20258;-62
2022/06/11 12:39:33;;;;;;;2.45;1.58;;;;;;;;;;4434242;32;20201;-61
2022/06/11 12:42:06;;;;;;;1.77;1.50;;;;;;;;;;4434049;32;20376;-61
2022/06/11 12:44:50;;;;;;;1.50;1.40;;;;;;;;;;4433684;32;20290;-61
2022/06/11 12:47:24;;;;;;;2.67;2.37;;;;;;;;;;4433138;32;21007;-62
2022/06/11 12:50:11;;;;;;;2.95;2.12;;;;;;;;;;4434084;32;20346;-61
2022/06/11 12:52:51;;;;;;;3.05;1.80;;;;;;;;;;4427581;32;20316;-62
2022/06/11 12:55:36;;;;;;;3.40;1.92;;;;;;;;;;4433954;32;20205;-63
2022/06/11 12:58:22;;;;;;;2.87;1.77;;;;;;;;;;4433575;32;20259;-62
2022/06/11 13:00:55;;;;;;;2.40;1.70;;;;;;;;;;4433846;32;20189;-60
2022/06/11 13:03:36;;;;;;;1.83;1.25;;;;;;;;;;4434216;32;20278;-62
2022/06/11 13:06:19;;;;;;;2.25;1.65;;;;;;;;;;4432506;32;20243;-61
2022/06/11 13:09:27;;;;;;;1.90;1.33;;;;;;;;;;4433502;32;20230;-63
2022/06/11 13:12:07;;;;;;;3.15;2.00;;;;;;;;;;4396961;32;20266;-62
2022/06/11 13:14:51;;;;;;;6.68;2.35;;;;;;;;;;4433694;32;20208;-61
2022/06/11 13:17:42;;;;;;;1.92;1.37;;;;;;;;;;4431822;32;20668;-62
2022/06/11 13:20:32;;;;;;;2.42;1.80;;;;;;;;;;4415704;32;20582;-62
2022/06/11 13:23:05;;;;;;;2.20;1.37;;;;;;;;;;4426529;32;20283;-61
2022/06/11 13:25:51;;;;;;;6.18;1.20;;;;;;;;;;4432762;32;20223;-62
2022/06/11 13:28:30;;;;;;;2.87;1.45;;;;;;;;;;4433220;32;20212;-62
2022/06/11 13:31:05;;;;;;;5.53;1.52;;;;;;;;;;4433332;32;20289;-61
2022/06/11 13:33:56;;;;;;;4.35;2.15;;;;;;;;;;4433284;32;20213;-62
2022/06/11 13:36:24;;;;;;;1.70;1.30;;;;;;;;;;4432917;32;20257;-61
2022/06/11 13:39:12;;;;;;;1.65;1.05;;;;;;;;;;4433252;32;20841;-61
2022/06/11 13:42:10;;;;;;;1.98;1.37;;;;;;;;;;4410649;32;20225;-60
2022/06/11 13:45:14;;;;;;;1.20;1.10;;;;;;;;;;4430520;32;20236;-60
2022/06/11 13:48:05;;;;;;;1.50;1.40;;;;;;;;;;4410679;32;20240;-60
2022/06/11 13:50:48;;;;;;;2.90;1.27;;;;;;;;;;4433131;32;20275;-60
2022/06/11 13:56:17;;;;;;;1.30;1.20;;;;;;;;;;4425249;32;20852;-60
2022/06/11 13:58:52;;;;;;;3.65;1.20;;;;;;;;;;4416450;32;20255;-61
2022/06/11 14:01:29;;;;;;;1.62;1.20;;;;;;;;;;4417630;32;20564;-61
2022/06/11 14:04:16;;;;;;;1.50;1.00;;;;;;;;;;4417854;32;20189;-62
2022/06/11 14:06:42;;;;;;;2.90;1.30;;;;;;;;;;4416175;32;20221;-61
2022/06/11 14:12:25;;;;;;;2.05;1.37;;;;;;;;;;4433007;32;20655;-61
2022/06/11 14:15:20;;;;;;;1.45;1.15;;;;;;;;;;4433390;32;20601;-59
2022/06/11 14:17:51;;;;;;;1.52;1.08;;;;;;;;;;4432728;32;20573;-59
2022/06/11 14:20:22;;;;;;;2.78;1.15;;;;;;;;;;4434730;32;20643;-60
2022/06/11 14:22:52;;;;;;;1.58;1.37;;;;;;;;;;4435619;32;20220;-61
2022/06/11 14:25:48;;;;;;;4.85;1.30;;;;;;;;;;4434534;32;20304;-61
2022/06/11 14:28:16;;;;;;;1.20;1.10;;;;;;;;;;4434543;32;20311;-61
2022/06/11 14:30:44;;;;;;;4.25;1.30;;;;;;;;;;4435689;32;20189;-61
2022/06/11 14:33:13;;;;;;;1.23;1.10;;;;;;;;;;4434197;32;20759;-62
2022/06/11 14:35:50;;;;;;;1.52;1.42;;;;;;;;;;4435437;32;20243;-61
2022/06/11 14:38:36;;;;;;;2.37;1.00;;;;;;;;;;4435547;32;20577;-61
2022/06/11 14:41:10;;;;;;;1.50;0.98;;;;;;;;;;4434017;32;20228;-62
2022/06/11 14:43:51;;;;;;;1.37;1.27;;;;;;;;;;4435602;32;20761;-62
2022/06/11 14:46:28;;;;;;;1.58;1.35;;;;;;;;;;4435425;32;20258;-62
2022/06/11 14:48:57;;;;;;;1.70;1.42;;;;;;;;;;4435104;32;20235;-62
2022/06/11 14:51:24;;;;;;;1.60;1.33;;;;;;;;;;4434801;32;20277;-62
2022/06/11 14:54:11;;;;;;;2.22;1.35;;;;;;;;;;4435445;32;20271;-61
2022/06/11 14:56:42;;;;;;;3.10;1.70;;;;;;;;;;4435162;32;20213;-62
2022/06/11 14:59:14;;;;;;;2.78;1.95;;;;;;;;;;4433851;32;20251;-61
2022/06/11 15:01:45;;;;;;;2.00;1.80;;;;;;;;;;4433769;32;20380;-61
2022/06/11 15:04:30;;;;;;;2.75;2.15;;;;;;;;;;4435025;32;20267;-61
2022/06/11 15:07:24;;;;;;;4.07;1.55;;;;;;;;;;4434716;32;20212;-61
2022/06/11 15:10:02;;;;;;;2.78;1.15;;;;;;;;;;4433846;32;20594;-61
2022/06/11 15:12:54;;;;;;;2.15;1.20;;;;;;;;;;4419704;32;20647;-61
2022/06/11 15:15:38;;;;;;;1.12;0.93;;;;;;;;;;4428716;32;20196;-61
2022/06/11 15:18:38;;;;;;;1.30;1.02;;;;;;;;;;4434914;32;20221;-63
2022/06/11 15:21:24;;;;;;;1.50;1.23;;;;;;;;;;4429672;32;20221;-62
2022/06/11 15:24:12;;;;;;;1.60;0.95;;;;;;;;;;4433520;32;20731;-62
2022/06/11 15:26:46;;;;;;;1.70;1.10;;;;;;;;;;4426651;32;20267;-63
2022/06/11 15:29:18;;;;;;;2.03;1.30;;;;;;;;;;4435044;32;20618;-63
2022/06/11 15:31:54;;;;;;;1.73;1.45;;;;;;;;;;4434354;32;20213;-62